createdAt,value
2016-05-09T00:00:00.777Z,0
2016-05-09T00:01:00.825Z,0
2016-05-09T00:02:00.843Z,0
2016-05-09T00:03:00.894Z,0
2016-05-09T00:04:00.787Z,0
2016-05-09T00:05:00.977Z,0
2016-05-09T00:06:00.854Z,0
2016-05-09T00:07:01.060Z,0
2016-05-09T00:08:01.095Z,0
2016-05-09T00:09:01.145Z,0
2016-05-09T00:10:01.178Z,0
2016-05-09T00:11:01.071Z,0
2016-05-09T00:12:01.261Z,0
2016-05-09T00:13:01.295Z,0
2016-05-09T00:14:01.564Z,0
2016-05-09T00:15:01.379Z,0
2016-05-09T00:16:01.272Z,0
2016-05-09T00:17:01.306Z,0
2016-05-09T00:18:01.511Z,0
2016-05-09T00:19:01.530Z,0
2016-05-09T00:20:01.580Z,0
2016-05-09T00:21:01.630Z,0
2016-05-09T00:22:01.523Z,0
2016-05-09T00:23:01.713Z,0
2016-05-09T00:24:01.747Z,0
2016-05-09T00:25:01.780Z,0
2016-05-09T00:26:01.674Z,0
2016-05-09T00:27:01.879Z,0
2016-05-09T00:28:01.914Z,0
2016-05-09T00:29:01.682Z,0
2016-05-09T00:30:01.997Z,0
2016-05-09T00:31:01.891Z,0
2016-05-09T00:32:02.081Z,0
2016-05-09T00:33:02.115Z,0
2016-05-09T00:34:02.149Z,0
2016-05-09T00:35:01.885Z,0
2016-05-09T00:36:02.232Z,0
2016-05-09T00:37:02.282Z,0
2016-05-09T00:38:02.331Z,0
2016-05-09T00:39:02.350Z,0
2016-05-09T00:40:02.384Z,0
2016-05-09T00:41:02.465Z,0
2016-05-09T00:42:02.326Z,0
2016-05-09T00:43:02.501Z,0
2016-05-09T00:44:02.848Z,0
2016-05-09T00:45:02.601Z,0
2016-05-09T00:46:02.649Z,0
2016-05-09T00:47:02.684Z,0
2016-05-09T00:48:02.717Z,0
2016-05-09T00:49:02.611Z,0
2016-05-09T00:50:02.800Z,0
2016-05-09T00:51:02.851Z,0
2016-05-09T00:52:02.744Z,0
2016-05-09T00:53:02.919Z,0
2016-05-09T00:54:02.952Z,0
2016-05-09T00:55:03.033Z,0
2016-05-09T00:56:03.052Z,0
2016-05-09T00:57:03.085Z,0
2016-05-09T00:58:03.135Z,0
2016-05-09T00:59:02.857Z,0
2016-05-09T01:00:03.203Z,0
2016-05-09T01:01:03.252Z,0
2016-05-09T01:02:02.990Z,0
2016-05-09T01:03:03.180Z,0
2016-05-09T01:04:03.370Z,0
2016-05-09T01:05:03.263Z,0
2016-05-09T01:06:03.454Z,0
2016-05-09T01:07:03.346Z,0
2016-05-09T01:08:03.381Z,0
2016-05-09T01:09:03.570Z,0
2016-05-09T01:10:03.605Z,0
2016-05-09T01:11:03.515Z,0
2016-05-09T01:12:03.704Z,0
2016-05-09T01:13:03.581Z,0
2016-05-09T01:14:03.631Z,0
2016-05-09T01:15:03.367Z,0
2016-05-09T01:16:03.700Z,0
2016-05-09T01:17:03.906Z,0
2016-05-09T01:18:03.783Z,0
2016-05-09T01:19:03.989Z,0
2016-05-09T01:20:04.022Z,0
2016-05-09T01:21:04.056Z,0
2016-05-09T01:22:03.793Z,0
2016-05-09T01:23:04.140Z,0
2016-05-09T01:24:04.033Z,0
2016-05-09T01:25:04.224Z,0
2016-05-09T01:26:04.272Z,0
2016-05-09T01:27:04.307Z,0
2016-05-09T01:28:04.216Z,0
2016-05-09T01:29:05.610Z,0
2016-05-09T01:30:04.424Z,0
2016-05-09T01:31:04.474Z,0
2016-05-09T01:32:04.351Z,0
2016-05-09T01:33:04.541Z,0
2016-05-09T01:34:04.591Z,0
2016-05-09T01:35:04.329Z,0
2016-05-09T01:36:04.659Z,0
2016-05-09T01:37:04.709Z,0
2016-05-09T01:38:04.601Z,0
2016-05-09T01:39:04.777Z,0
2016-05-09T01:40:04.671Z,0
2016-05-09T01:41:04.735Z,0
2016-05-09T01:42:04.910Z,0
2016-05-09T01:43:04.943Z,0
2016-05-09T01:44:05.008Z,0
2016-05-09T01:45:04.715Z,0
2016-05-09T01:46:05.061Z,0
2016-05-09T01:47:05.126Z,0
2016-05-09T01:48:05.161Z,0
2016-05-09T01:49:05.194Z,0
2016-05-09T01:50:05.244Z,0
2016-05-09T01:51:05.277Z,0
2016-05-09T01:52:05.312Z,0
2016-05-09T01:53:05.049Z,0
2016-05-09T01:54:05.395Z,0
2016-05-09T01:55:05.429Z,0
2016-05-09T01:56:05.478Z,0
2016-05-09T01:57:05.513Z,0
2016-05-09T01:58:05.563Z,0
2016-05-09T01:59:05.690Z,0
2016-05-09T02:00:05.646Z,0
2016-05-09T02:01:05.679Z,0
2016-05-09T02:02:05.557Z,0
2016-05-09T02:03:05.779Z,0
2016-05-09T02:04:05.813Z,0
2016-05-09T02:05:05.847Z,0
2016-05-09T02:06:05.724Z,0
2016-05-09T02:07:05.773Z,0
2016-05-09T02:08:05.807Z,0
2016-05-09T02:09:06.014Z,0
2016-05-09T02:10:06.063Z,0
2016-05-09T02:11:05.941Z,0
2016-05-09T02:12:06.131Z,0
2016-05-09T02:13:06.165Z,0
2016-05-09T02:14:06.276Z,0
2016-05-09T02:15:06.249Z,0
2016-05-09T02:16:06.282Z,0
2016-05-09T02:17:06.332Z,0
2016-05-09T02:18:06.381Z,0
2016-05-09T02:19:06.400Z,0
2016-05-09T02:20:06.449Z,0
2016-05-09T02:21:06.327Z,0
2016-05-09T02:22:06.377Z,0
2016-05-09T02:23:06.598Z,0
2016-05-09T02:24:06.623Z,0
2016-05-09T02:25:06.501Z,0
2016-05-09T02:26:06.706Z,0
2016-05-09T02:27:06.741Z,0
2016-05-09T02:28:06.760Z,0
2016-05-09T02:29:07.027Z,0
2016-05-09T02:30:06.857Z,0
2016-05-09T02:31:06.735Z,0
2016-05-09T02:32:06.926Z,0
2016-05-09T02:33:06.960Z,0
2016-05-09T02:34:07.026Z,0
2016-05-09T02:35:07.059Z,0
2016-05-09T02:36:07.093Z,0
2016-05-09T02:37:07.126Z,0
2016-05-09T02:38:07.176Z,0
2016-05-09T02:39:07.070Z,0
2016-05-09T02:40:07.260Z,0
2016-05-09T02:41:07.294Z,0
2016-05-09T02:42:07.344Z,0
2016-05-09T02:43:07.378Z,0
2016-05-09T02:44:09.270Z,0
2016-05-09T02:45:07.305Z,0
2016-05-09T02:46:07.495Z,0
2016-05-09T02:47:07.544Z,0
2016-05-09T02:48:07.578Z,0
2016-05-09T02:49:07.613Z,0
2016-05-09T02:50:07.662Z,0
2016-05-09T02:51:07.711Z,0
2016-05-09T02:52:07.589Z,0
2016-05-09T02:53:07.794Z,0
2016-05-09T02:54:07.813Z,0
2016-05-09T02:55:07.721Z,0
2016-05-09T02:56:07.757Z,0
2016-05-09T02:57:07.946Z,0
2016-05-09T02:58:07.980Z,0
2016-05-09T02:59:08.045Z,0
2016-05-09T03:00:08.080Z,0
2016-05-09T03:01:08.098Z,0
2016-05-09T03:02:07.991Z,0
2016-05-09T03:03:08.196Z,0
2016-05-09T03:04:08.074Z,0
2016-05-09T03:05:08.264Z,0
2016-05-09T03:06:08.314Z,0
2016-05-09T03:07:08.348Z,0
2016-05-09T03:08:08.382Z,0
2016-05-09T03:09:08.431Z,0
2016-05-09T03:10:08.326Z,0
2016-05-09T03:11:08.515Z,0
2016-05-09T03:12:08.252Z,0
2016-05-09T03:13:08.583Z,0
2016-05-09T03:14:08.961Z,0
2016-05-09T03:15:08.683Z,0
2016-05-09T03:16:08.731Z,0
2016-05-09T03:17:08.750Z,0
2016-05-09T03:18:08.800Z,0
2016-05-09T03:19:08.693Z,0
2016-05-09T03:20:08.883Z,0
2016-05-09T03:21:08.917Z,0
2016-05-09T03:22:08.952Z,0
2016-05-09T03:23:09.000Z,0
2016-05-09T03:24:09.035Z,0
2016-05-09T03:25:09.084Z,0
2016-05-09T03:26:09.118Z,0
2016-05-09T03:27:09.168Z,0
2016-05-09T03:28:09.202Z,0
2016-05-09T03:29:09.799Z,0
2016-05-09T03:30:09.285Z,0
2016-05-09T03:31:09.163Z,0
2016-05-09T03:32:09.212Z,0
2016-05-09T03:33:09.402Z,0
2016-05-09T03:34:09.295Z,0
2016-05-09T03:35:09.487Z,0
2016-05-09T03:36:09.535Z,0
2016-05-09T03:37:09.554Z,0
2016-05-09T03:38:09.603Z,0
2016-05-09T03:39:09.638Z,0
2016-05-09T03:40:09.703Z,0
2016-05-09T03:41:09.737Z,0
2016-05-09T03:42:09.614Z,0
2016-05-09T03:43:09.820Z,0
2016-05-09T03:44:09.869Z,0
2016-05-09T03:45:09.889Z,0
2016-05-09T03:46:09.953Z,0
2016-05-09T03:47:09.972Z,0
2016-05-09T03:48:10.005Z,0
2016-05-09T03:49:10.055Z,0
2016-05-09T03:50:10.386Z,0
2016-05-09T03:51:10.263Z,0
2016-05-09T03:52:10.188Z,0
2016-05-09T03:53:10.222Z,0
2016-05-09T03:54:10.255Z,0
2016-05-09T03:55:10.149Z,0
2016-05-09T03:56:10.324Z,0
2016-05-09T03:57:10.389Z,0
2016-05-09T03:58:10.251Z,0
2016-05-09T03:59:11.254Z,0
2016-05-09T04:00:10.490Z,0
2016-05-09T04:01:10.557Z,0
2016-05-09T04:02:10.434Z,0
2016-05-09T04:03:10.624Z,0
2016-05-09T04:04:10.673Z,0
2016-05-09T04:05:10.707Z,0
2016-05-09T04:06:10.740Z,0
2016-05-09T04:07:10.776Z,0
2016-05-09T04:08:10.840Z,0
2016-05-09T04:09:10.703Z,0
2016-05-09T04:10:10.908Z,0
2016-05-09T04:11:10.801Z,0
2016-05-09T04:12:10.991Z,0
2016-05-09T04:13:11.026Z,0
2016-05-09T04:14:11.357Z,0
2016-05-09T04:15:11.109Z,0
2016-05-09T04:16:11.142Z,0
2016-05-09T04:17:11.192Z,0
2016-05-09T04:18:11.070Z,0
2016-05-09T04:19:11.261Z,0
2016-05-09T04:20:11.311Z,0
2016-05-09T04:21:11.344Z,0
2016-05-09T04:22:11.377Z,0
2016-05-09T04:23:11.271Z,0
2016-05-09T04:24:11.461Z,0
2016-05-09T04:25:11.511Z,0
2016-05-09T04:26:11.561Z,0
2016-05-09T04:27:11.282Z,0
2016-05-09T04:28:11.629Z,0
2016-05-09T04:29:11.928Z,0
2016-05-09T04:30:11.712Z,0
2016-05-09T04:31:11.605Z,0
2016-05-09T04:32:11.796Z,0
2016-05-09T04:33:11.688Z,0
2016-05-09T04:34:11.879Z,0
2016-05-09T04:35:11.913Z,0
2016-05-09T04:36:11.962Z,0
2016-05-09T04:37:11.981Z,0
2016-05-09T04:38:12.031Z,0
2016-05-09T04:39:12.080Z,0
2016-05-09T04:40:12.114Z,0
2016-05-09T04:41:12.195Z,0
2016-05-09T04:42:12.197Z,0
2016-05-09T04:43:12.090Z,0
2016-05-09T04:44:13.250Z,0
2016-05-09T04:45:12.315Z,0
2016-05-09T04:46:12.365Z,0
2016-05-09T04:47:12.414Z,0
2016-05-09T04:48:12.463Z,0
2016-05-09T04:49:12.481Z,0
2016-05-09T04:50:12.532Z,0
2016-05-09T04:51:12.424Z,0
2016-05-09T04:52:12.303Z,0
2016-05-09T04:53:12.649Z,0
2016-05-09T04:54:12.699Z,0
2016-05-09T04:55:12.747Z,0
2016-05-09T04:56:12.626Z,0
2016-05-09T04:57:12.816Z,0
2016-05-09T04:58:12.850Z,0
2016-05-09T04:59:12.758Z,0
2016-05-09T05:00:12.777Z,0
2016-05-09T05:01:12.982Z,0
2016-05-09T05:02:13.002Z,0
2016-05-09T05:03:12.910Z,0
2016-05-09T05:04:13.101Z,0
2016-05-09T05:05:13.149Z,0
2016-05-09T05:06:13.184Z,0
2016-05-09T05:07:13.218Z,0
2016-05-09T05:08:13.252Z,0
2016-05-09T05:09:13.301Z,0
2016-05-09T05:10:13.335Z,0
2016-05-09T05:11:13.385Z,0
2016-05-09T05:12:13.278Z,0
2016-05-09T05:13:13.453Z,0
2016-05-09T05:14:13.581Z,0
2016-05-09T05:15:13.536Z,0
2016-05-09T05:16:13.586Z,0
2016-05-09T05:17:13.619Z,0
2016-05-09T05:18:13.670Z,0
2016-05-09T05:19:13.547Z,0
2016-05-09T05:20:13.597Z,0
2016-05-09T05:21:13.786Z,0
2016-05-09T05:22:13.664Z,0
2016-05-09T05:23:13.869Z,0
2016-05-09T05:24:13.920Z,0
2016-05-09T05:25:13.783Z,0
2016-05-09T05:26:13.988Z,0
2016-05-09T05:27:13.880Z,0
2016-05-09T05:28:14.071Z,0
2016-05-09T05:29:16.527Z,0
2016-05-09T05:30:14.155Z,0
2016-05-09T05:31:14.033Z,0
2016-05-09T05:32:14.254Z,0
2016-05-09T05:33:14.271Z,0
2016-05-09T05:34:14.306Z,0
2016-05-09T05:35:14.355Z,0
2016-05-09T05:36:14.233Z,0
2016-05-09T05:37:14.127Z,0
2016-05-09T05:38:14.473Z,0
2016-05-09T05:39:14.507Z,0
2016-05-09T05:40:14.572Z,0
2016-05-09T05:41:14.606Z,0
2016-05-09T05:42:14.484Z,0
2016-05-09T05:43:14.706Z,0
2016-05-09T05:44:14.583Z,0
2016-05-09T05:45:14.601Z,0
2016-05-09T05:46:28.795Z,0
2016-05-09T05:47:14.842Z,0
2016-05-09T05:48:14.890Z,0
2016-05-09T05:49:14.768Z,0
2016-05-09T05:50:14.817Z,0
2016-05-09T05:51:14.992Z,0
2016-05-09T05:52:15.041Z,0
2016-05-09T05:53:15.091Z,0
2016-05-09T05:54:15.126Z,0
2016-05-09T05:55:15.175Z,0
2016-05-09T05:56:15.209Z,0
2016-05-09T05:57:15.102Z,0
2016-05-09T05:58:15.292Z,0
2016-05-09T05:59:15.341Z,0
2016-05-09T06:00:15.376Z,0
2016-05-09T06:01:15.453Z,0
2016-05-09T06:02:15.375Z,0
2016-05-09T06:03:15.624Z,0
2016-05-09T06:04:15.718Z,0
2016-05-09T06:05:15.796Z,0
2016-05-09T06:06:15.845Z,0
2016-05-09T06:07:15.755Z,0
2016-05-09T06:08:15.991Z,0
2016-05-09T06:09:16.025Z,0
2016-05-09T06:10:15.935Z,0
2016-05-09T06:11:16.130Z,0
2016-05-09T06:12:16.170Z,0
2016-05-09T06:13:16.226Z,0
2016-05-09T06:14:16.318Z,0
2016-05-09T06:15:16.154Z,0
2016-05-09T06:16:16.206Z,0
2016-05-09T06:17:16.397Z,0
2016-05-09T06:18:16.652Z,0
2016-05-09T06:19:16.485Z,0
2016-05-09T06:20:16.395Z,0
2016-05-09T06:21:16.570Z,0
2016-05-09T06:22:16.637Z,0
2016-05-09T06:23:16.655Z,0
2016-05-09T06:24:16.690Z,0
2016-05-09T06:25:16.725Z,0
2016-05-09T06:26:16.619Z,0
2016-05-09T06:27:16.668Z,0
2016-05-09T06:28:16.859Z,0
2016-05-09T06:29:17.345Z,0
2016-05-09T06:30:16.942Z,0
2016-05-09T06:31:16.976Z,0
2016-05-09T06:32:17.041Z,0
2016-05-09T06:33:17.058Z,0
2016-05-09T06:34:17.093Z,0
2016-05-09T06:35:16.971Z,0
2016-05-09T06:36:17.177Z,0
2016-05-09T06:37:17.227Z,0
2016-05-09T06:38:17.276Z,0
2016-05-09T06:39:17.294Z,0
2016-05-09T06:40:17.375Z,0
2016-05-09T06:41:23.693Z,0
2016-05-09T06:42:17.427Z,0
2016-05-09T06:43:17.461Z,0
2016-05-09T06:44:17.260Z,0
2016-05-09T06:45:17.546Z,0
2016-05-09T06:46:17.594Z,0
2016-05-09T06:47:17.472Z,0
2016-05-09T06:48:17.662Z,0
2016-05-09T06:49:17.556Z,0
2016-05-09T06:50:17.793Z,0
2016-05-09T06:51:17.639Z,0
2016-05-09T06:52:17.829Z,0
2016-05-09T06:53:17.706Z,0
2016-05-09T06:54:17.912Z,0
2016-05-09T06:55:17.806Z,0
2016-05-09T06:56:17.981Z,0
2016-05-09T06:57:18.031Z,0
2016-05-09T06:58:18.064Z,0
2016-05-09T06:59:18.176Z,0
2016-05-09T07:00:18.007Z,0
2016-05-09T07:01:18.197Z,0
2016-05-09T07:02:18.247Z,0
2016-05-09T07:03:18.280Z,0
2016-05-09T07:04:18.158Z,0
2016-05-09T07:05:18.208Z,0
2016-05-09T07:06:18.397Z,0
2016-05-09T07:07:18.308Z,0
2016-05-09T07:08:18.482Z,0
2016-05-09T07:09:18.360Z,0
2016-05-09T07:10:18.565Z,0
2016-05-09T07:11:18.599Z,0
2016-05-09T07:12:18.774Z,0
2016-05-09T07:13:18.683Z,0
2016-05-09T07:14:18.983Z,0
2016-05-09T07:15:18.626Z,0
2016-05-09T07:16:18.660Z,0
2016-05-09T07:17:18.849Z,0
2016-05-09T07:18:18.743Z,0
2016-05-09T07:19:18.777Z,0
2016-05-09T07:20:18.982Z,0
2016-05-09T07:21:18.860Z,0
2016-05-09T07:22:19.051Z,0
2016-05-09T07:23:19.100Z,0
2016-05-09T07:24:19.150Z,0
2016-05-09T07:25:19.184Z,0
2016-05-09T07:26:19.218Z,0
2016-05-09T07:27:19.267Z,0
2016-05-09T07:28:19.301Z,0
2016-05-09T07:29:19.367Z,0
2016-05-09T07:30:19.401Z,0
2016-05-09T07:31:19.434Z,0
2016-05-09T07:32:19.483Z,0
2016-05-09T07:33:19.346Z,0
2016-05-09T07:34:19.536Z,0
2016-05-09T07:35:19.601Z,0
2016-05-09T07:36:19.651Z,0
2016-05-09T07:37:19.669Z,0
2016-05-09T07:38:19.719Z,0
2016-05-09T07:39:19.753Z,0
2016-05-09T07:40:19.786Z,0
2016-05-09T07:41:19.836Z,0
2016-05-09T07:42:19.870Z,0
2016-05-09T07:43:19.919Z,0
2016-05-09T07:44:21.079Z,0
2016-05-09T07:45:19.988Z,0
2016-05-09T07:46:20.037Z,0
2016-05-09T07:47:20.071Z,0
2016-05-09T07:48:20.105Z,0
2016-05-09T07:49:20.185Z,0
2016-05-09T07:50:20.205Z,0
2016-05-09T07:51:20.243Z,0
2016-05-09T07:52:20.121Z,0
2016-05-09T07:53:20.327Z,0
2016-05-09T07:54:20.360Z,0
2016-05-09T07:55:20.247Z,0
2016-05-09T07:56:20.453Z,0
2016-05-09T07:57:20.363Z,0
2016-05-09T07:58:20.365Z,0
2016-05-09T07:59:20.447Z,0
2016-05-09T08:00:20.621Z,0
2016-05-09T08:01:20.654Z,0
2016-05-09T08:02:20.688Z,0
2016-05-09T08:03:20.722Z,0
2016-05-09T08:04:20.771Z,0
2016-05-09T08:05:24.556Z,0
2016-05-09T08:06:38.045Z,0
2016-05-09T08:07:30.154Z,0
2016-05-09T08:08:30.892Z,0
2016-05-09T08:09:36.445Z,0
2016-05-09T08:10:26.398Z,0
2016-05-09T08:11:24.916Z,0
2016-05-09T08:12:27.465Z,0
2016-05-09T08:13:21.156Z,0
2016-05-09T08:14:21.392Z,0
2016-05-09T08:15:21.208Z,0
2016-05-09T08:16:21.101Z,0
2016-05-09T08:17:21.292Z,0
2016-05-09T08:18:21.326Z,0
2016-05-09T08:19:21.390Z,0
2016-05-09T08:20:21.408Z,0
2016-05-09T08:21:21.318Z,0
2016-05-09T08:22:21.508Z,0
2016-05-09T08:23:21.525Z,0
2016-05-09T08:24:21.576Z,0
2016-05-09T08:25:21.626Z,0
2016-05-09T08:26:21.644Z,0
2016-05-09T08:27:21.709Z,0
2016-05-09T08:28:21.743Z,0
2016-05-09T08:29:22.027Z,0
2016-05-09T08:30:21.827Z,0
2016-05-09T08:31:21.860Z,0
2016-05-09T08:32:21.894Z,0
2016-05-09T08:33:21.928Z,0
2016-05-09T08:34:21.821Z,0
2016-05-09T08:35:22.012Z,0
2016-05-09T08:36:21.905Z,0
2016-05-09T08:37:21.939Z,0
2016-05-09T08:38:21.988Z,0
2016-05-09T08:39:22.178Z,0
2016-05-09T08:40:22.181Z,0
2016-05-09T08:41:22.263Z,0
2016-05-09T08:42:22.140Z,0
2016-05-09T08:43:22.362Z,0
2016-05-09T08:44:22.629Z,0
2016-05-09T08:45:22.414Z,0
2016-05-09T08:46:22.463Z,0
2016-05-09T08:47:22.340Z,0
2016-05-09T08:48:22.234Z,0
2016-05-09T08:49:22.581Z,0
2016-05-09T08:50:22.458Z,0
2016-05-09T08:51:22.664Z,0
2016-05-09T08:52:22.698Z,0
2016-05-09T08:53:22.732Z,0
2016-05-09T08:54:22.781Z,0
2016-05-09T08:55:22.816Z,0
2016-05-09T08:56:22.881Z,0
2016-05-09T08:57:22.758Z,0
2016-05-09T08:58:22.949Z,0
2016-05-09T08:59:23.014Z,0
2016-05-09T09:00:23.016Z,0
2016-05-09T09:01:23.066Z,0
2016-05-09T09:02:22.944Z,0
2016-05-09T09:03:23.149Z,0
2016-05-09T09:04:23.027Z,0
2016-05-09T09:05:24.186Z,215
2016-05-09T09:06:24.079Z,0
2016-05-09T09:07:23.973Z,0
2016-05-09T09:08:24.131Z,0
2016-05-09T09:09:24.197Z,0
2016-05-09T09:10:24.387Z,0
2016-05-09T09:11:24.420Z,0
2016-05-09T09:12:24.470Z,0
2016-05-09T09:13:24.521Z,0
2016-05-09T09:14:24.820Z,0
2016-05-09T09:15:24.432Z,0
2016-05-09T09:16:24.466Z,0
2016-05-09T09:17:24.656Z,0
2016-05-09T09:18:24.706Z,0
2016-05-09T09:19:24.756Z,0
2016-05-09T09:20:24.789Z,0
2016-05-09T09:21:24.823Z,0
2016-05-09T09:22:24.856Z,0
2016-05-09T09:23:24.922Z,0
2016-05-09T09:24:24.800Z,0
2016-05-09T09:25:24.990Z,0
2016-05-09T09:26:25.024Z,0
2016-05-09T09:27:25.073Z,0
2016-05-09T09:28:24.967Z,0
2016-05-09T09:29:25.016Z,0
2016-05-09T09:30:25.206Z,0
2016-05-09T09:31:25.068Z,0
2016-05-09T09:32:25.103Z,0
2016-05-09T09:33:25.308Z,0
2016-05-09T09:34:25.202Z,0
2016-05-09T09:35:25.502Z,0
2016-05-09T09:36:25.426Z,0
2016-05-09T09:37:25.491Z,0
2016-05-09T09:38:25.385Z,0
2016-05-09T09:39:25.559Z,0
2016-05-09T09:40:25.437Z,0
2016-05-09T09:41:25.486Z,0
2016-05-09T09:42:25.660Z,0
2016-05-09T09:43:25.726Z,0
2016-05-09T09:44:26.681Z,0
2016-05-09T09:45:25.794Z,5
2016-05-09T09:46:25.843Z,5
2016-05-09T09:47:25.876Z,5
2016-05-09T09:48:25.912Z,5
2016-05-09T09:49:25.961Z,5
2016-05-09T09:50:25.839Z,5
2016-05-09T09:51:26.044Z,5
2016-05-09T09:52:25.765Z,5
2016-05-09T09:53:26.112Z,5
2016-05-09T09:54:26.006Z,5
2016-05-09T09:55:26.196Z,5
2016-05-09T09:56:26.105Z,5
2016-05-09T09:57:26.123Z,5
2016-05-09T09:58:26.313Z,5
2016-05-09T09:59:26.769Z,0
2016-05-09T10:00:26.396Z,5
2016-05-09T10:01:26.289Z,5
2016-05-09T10:02:26.340Z,5
2016-05-09T10:03:26.545Z,5
2016-05-09T10:04:26.564Z,5
2016-05-09T10:05:26.458Z,5
2016-05-09T10:06:26.663Z,5
2016-05-09T10:07:26.696Z,5
2016-05-09T10:08:26.433Z,5
2016-05-09T10:09:26.765Z,5
2016-05-09T10:10:26.829Z,5
2016-05-09T10:11:26.676Z,5
2016-05-09T10:12:26.882Z,5
2016-05-09T10:13:26.635Z,5
2016-05-09T10:14:27.185Z,5
2016-05-09T10:15:26.999Z,5
2016-05-09T10:16:27.065Z,5
2016-05-09T10:17:27.083Z,5
2016-05-09T10:18:26.976Z,5
2016-05-09T10:19:27.182Z,5
2016-05-09T10:20:27.201Z,5
2016-05-09T10:21:27.250Z,5
2016-05-09T10:22:27.284Z,5
2016-05-09T10:23:27.318Z,5
2016-05-09T10:24:27.242Z,5
2016-05-09T10:25:27.433Z,5
2016-05-09T10:26:27.451Z,5
2016-05-09T10:27:27.484Z,5
2016-05-09T10:28:27.222Z,5
2016-05-09T10:29:27.834Z,0
2016-05-09T10:30:27.603Z,5
2016-05-09T10:31:27.370Z,0
2016-05-09T10:32:27.389Z,0
2016-05-09T10:33:27.719Z,5
2016-05-09T10:34:27.770Z,5
2016-05-09T10:35:27.819Z,5
2016-05-09T10:36:27.853Z,5
2016-05-09T10:37:27.886Z,5
2016-05-09T10:38:27.780Z,0
2016-05-09T10:39:27.970Z,0
2016-05-09T10:40:27.863Z,5
2016-05-09T10:41:27.897Z,5
2016-05-09T10:42:27.947Z,5
2016-05-09T10:43:27.825Z,5
2016-05-09T10:44:28.234Z,5
2016-05-09T10:45:27.908Z,0
2016-05-09T10:46:28.098Z,5
2016-05-09T10:47:28.148Z,5
2016-05-09T10:48:28.432Z,5
2016-05-09T10:49:28.388Z,5
2016-05-09T10:50:28.406Z,0
2016-05-09T10:51:28.471Z,5
2016-05-09T10:52:28.364Z,5
2016-05-09T10:53:28.539Z,5
2016-05-09T10:54:28.573Z,5
2016-05-09T10:55:28.639Z,5
2016-05-09T10:56:28.657Z,5
2016-05-09T10:57:28.706Z,5
2016-05-09T10:58:28.443Z,5
2016-05-09T10:59:29.555Z,5
2016-05-09T11:00:28.886Z,10
2016-05-09T11:01:28.873Z,10
2016-05-09T11:02:28.907Z,10
2016-05-09T11:03:28.956Z,5
2016-05-09T11:04:28.850Z,10
2016-05-09T11:05:28.868Z,10
2016-05-09T11:06:29.074Z,10
2016-05-09T11:07:29.108Z,10
2016-05-09T11:08:29.158Z,10
2016-05-09T11:09:29.207Z,5
2016-05-09T11:10:29.225Z,10
2016-05-09T11:11:29.290Z,10
2016-05-09T11:12:29.324Z,10
2016-05-09T11:13:30.156Z,10
2016-05-09T11:14:30.002Z,10
2016-05-09T11:15:29.458Z,10
2016-05-09T11:16:29.335Z,10
2016-05-09T11:17:29.509Z,10
2016-05-09T11:18:29.621Z,10
2016-05-09T11:19:29.546Z,0
2016-05-09T11:20:29.877Z,5
2016-05-09T11:21:29.770Z,10
2016-05-09T11:22:29.742Z,10
2016-05-09T11:23:30.354Z,10
2016-05-09T11:24:30.092Z,10
2016-05-09T11:25:29.860Z,5
2016-05-09T11:26:29.878Z,10
2016-05-09T11:27:29.928Z,10
2016-05-09T11:28:30.071Z,10
2016-05-09T11:29:30.011Z,10
2016-05-09T11:30:30.091Z,10
2016-05-09T11:31:30.157Z,10
2016-05-09T11:32:30.128Z,10
2016-05-09T11:33:30.037Z,10
2016-05-09T11:34:30.055Z,10
2016-05-09T11:35:30.261Z,10
2016-05-09T11:36:30.483Z,10
2016-05-09T11:37:30.830Z,10
2016-05-09T11:38:30.583Z,10
2016-05-09T11:39:30.538Z,10
2016-05-09T11:40:30.306Z,10
2016-05-09T11:41:30.513Z,0
2016-05-09T11:42:30.546Z,10
2016-05-09T11:43:30.439Z,10
2016-05-09T11:44:30.396Z,0
2016-05-09T11:45:30.507Z,10
2016-05-09T11:46:30.557Z,10
2016-05-09T11:47:30.746Z,10
2016-05-09T11:48:30.782Z,10
2016-05-09T11:49:30.862Z,5
2016-05-09T11:50:30.864Z,15
2016-05-09T11:51:31.195Z,0
2016-05-09T11:52:31.151Z,15
2016-05-09T11:53:30.982Z,15
2016-05-09T11:54:31.032Z,15
2016-05-09T11:55:31.096Z,10
2016-05-09T11:56:31.177Z,15
2016-05-09T11:57:31.242Z,10
2016-05-09T11:58:31.121Z,15
2016-05-09T11:59:31.467Z,15
2016-05-09T12:00:31.125Z,15
2016-05-09T12:01:31.003Z,15
2016-05-09T12:02:31.194Z,15
2016-05-09T12:03:31.243Z,15
2016-05-09T12:04:31.762Z,15
2016-05-09T12:05:31.311Z,15
2016-05-09T12:06:31.516Z,15
2016-05-09T12:07:31.566Z,15
2016-05-09T12:08:31.898Z,15
2016-05-09T12:09:31.666Z,15
2016-05-09T12:10:31.699Z,5
2016-05-09T12:11:31.749Z,15
2016-05-09T12:12:31.735Z,15
2016-05-09T12:13:31.802Z,15
2016-05-09T12:14:31.772Z,15
2016-05-09T12:15:31.885Z,15
2016-05-09T12:16:31.934Z,15
2016-05-09T12:17:31.984Z,5
2016-05-09T12:18:32.018Z,15
2016-05-09T12:19:32.052Z,15
2016-05-09T12:20:32.085Z,15
2016-05-09T12:21:32.135Z,5
2016-05-09T12:22:32.169Z,15
2016-05-09T12:23:32.219Z,15
2016-05-09T12:24:32.284Z,15
2016-05-09T12:25:32.301Z,15
2016-05-09T12:26:32.336Z,15
2016-05-09T12:27:32.229Z,15
2016-05-09T12:28:32.310Z,15
2016-05-09T12:29:32.251Z,15
2016-05-09T12:30:32.800Z,15
2016-05-09T12:31:32.772Z,10
2016-05-09T12:32:32.728Z,15
2016-05-09T12:33:32.590Z,15
2016-05-09T12:34:32.420Z,15
2016-05-09T12:35:32.767Z,15
2016-05-09T12:36:32.753Z,15
2016-05-09T12:37:32.928Z,15
2016-05-09T12:38:32.931Z,15
2016-05-09T12:39:33.136Z,20
2016-05-09T12:40:33.030Z,20
2016-05-09T12:41:33.283Z,0
2016-05-09T12:42:33.239Z,0
2016-05-09T12:43:33.429Z,20
2016-05-09T12:44:33.446Z,20
2016-05-09T12:45:33.497Z,20
2016-05-09T12:46:33.484Z,5
2016-05-09T12:47:33.205Z,20
2016-05-09T12:48:33.849Z,20
2016-05-09T12:49:33.570Z,20
2016-05-09T12:50:37.214Z,5
2016-05-09T12:51:38.576Z,5
2016-05-09T12:52:33.469Z,5
2016-05-09T12:53:33.987Z,5
2016-05-09T12:54:33.926Z,0
2016-05-09T12:55:33.837Z,0
2016-05-09T12:56:33.590Z,0
2016-05-09T12:57:33.467Z,5
2016-05-09T12:58:33.501Z,0
2016-05-09T12:59:34.472Z,0
2016-05-09T13:00:33.584Z,5
2016-05-09T13:01:33.618Z,15
2016-05-09T13:02:33.668Z,5
2016-05-09T13:03:33.904Z,20
2016-05-09T13:04:33.923Z,15
2016-05-09T13:05:33.941Z,20
2016-05-09T13:06:34.584Z,20
2016-05-09T13:07:34.025Z,20
2016-05-09T13:08:33.918Z,20
2016-05-09T13:09:34.124Z,20
2016-05-09T13:10:34.173Z,20
2016-05-09T13:11:34.191Z,20
2016-05-09T13:12:34.225Z,5
2016-05-09T13:13:34.275Z,5
2016-05-09T13:14:34.434Z,0
2016-05-09T13:15:34.203Z,25
2016-05-09T13:16:34.408Z,25
2016-05-09T13:17:34.286Z,25
2016-05-09T13:18:34.335Z,0
2016-05-09T13:19:34.558Z,0
2016-05-09T13:20:34.404Z,25
2016-05-09T13:21:34.610Z,20
2016-05-09T13:22:34.643Z,0
2016-05-09T13:23:34.693Z,0
2016-05-09T13:24:34.601Z,0
2016-05-09T13:25:34.761Z,5
2016-05-09T13:26:34.810Z,20
2016-05-09T13:27:34.735Z,0
2016-05-09T13:28:34.753Z,0
2016-05-09T13:29:35.209Z,0
2016-05-09T13:30:34.977Z,0
2016-05-09T13:31:34.887Z,0
2016-05-09T13:32:34.920Z,25
2016-05-09T13:33:34.814Z,5
2016-05-09T13:34:35.159Z,25
2016-05-09T13:35:35.179Z,15
2016-05-09T13:36:38.009Z,0
2016-05-09T13:37:35.262Z,15
2016-05-09T13:38:35.311Z,25
2016-05-09T13:39:35.501Z,0
2016-05-09T13:40:35.472Z,5
2016-05-09T13:41:35.428Z,0
2016-05-09T13:42:35.478Z,0
2016-05-09T13:43:35.528Z,520
2016-05-09T13:44:36.593Z,790
2016-05-09T13:45:35.596Z,810
2016-05-09T13:46:35.489Z,405
2016-05-09T13:47:35.694Z,715
2016-05-09T13:48:35.557Z,665
2016-05-09T13:49:35.762Z,620
2016-05-09T13:50:35.827Z,485
2016-05-09T13:51:35.846Z,485
2016-05-09T13:52:35.740Z,485
2016-05-09T13:53:35.946Z,490
2016-05-09T13:54:35.995Z,460
2016-05-09T13:55:35.888Z,430
2016-05-09T13:56:36.079Z,420
2016-05-09T13:57:35.816Z,345
2016-05-09T13:58:36.162Z,355
2016-05-09T13:59:36.571Z,395
2016-05-09T14:00:36.245Z,365
2016-05-09T14:01:36.279Z,395
2016-05-09T14:02:36.329Z,475
2016-05-09T14:03:36.223Z,480
2016-05-09T14:04:36.272Z,460
2016-05-09T14:05:36.306Z,435
2016-05-09T14:06:36.512Z,350
2016-05-09T14:07:36.545Z,410
2016-05-09T14:08:36.595Z,475
2016-05-09T14:09:36.489Z,455
2016-05-09T14:10:36.678Z,340
2016-05-09T14:11:36.587Z,395
2016-05-09T14:12:36.777Z,375
2016-05-09T14:13:36.655Z,350
2016-05-09T14:14:37.064Z,320
2016-05-09T14:15:36.614Z,355
2016-05-09T14:16:36.944Z,355
2016-05-09T14:17:36.978Z,310
2016-05-09T14:18:37.028Z,340
2016-05-09T14:19:36.922Z,330
2016-05-09T14:20:37.127Z,300
2016-05-09T14:21:37.161Z,275
2016-05-09T14:22:37.211Z,255
2016-05-09T14:23:37.604Z,250
2016-05-09T14:24:37.341Z,245
2016-05-09T14:25:37.343Z,250
2016-05-09T14:26:37.394Z,240
2016-05-09T14:27:37.443Z,230
2016-05-09T14:28:37.321Z,230
2016-05-09T14:29:37.386Z,240
2016-05-09T14:30:37.560Z,255
2016-05-09T14:31:37.610Z,275
2016-05-09T14:32:37.332Z,295
2016-05-09T14:33:37.568Z,260
2016-05-09T14:34:37.743Z,245
2016-05-09T14:35:37.324Z,265
2016-05-09T14:36:37.826Z,255
2016-05-09T14:37:37.704Z,255
2016-05-09T14:38:37.769Z,240